createdAt,value
2023-04-16T00:01:30.520Z,8.52
2023-04-16T00:04:01.199Z,8.49
2023-04-16T00:06:53.156Z,8.48
2023-04-16T00:10:02.385Z,8.40
2023-04-16T00:13:05.978Z,8.31
2023-04-16T00:16:15.635Z,8.26
2023-04-16T00:19:12.179Z,8.24
2023-04-16T00:22:17.932Z,8.21
2023-04-16T00:25:34.794Z,8.19
2023-04-16T00:28:19.518Z,8.20
2023-04-16T00:30:50.480Z,8.21
2023-04-16T00:34:21.104Z,8.21
2023-04-16T00:37:30.557Z,8.28
2023-04-16T00:41:05.045Z,8.37
2023-04-16T00:44:26.904Z,8.50
2023-04-16T00:47:31.858Z,8.62
2023-04-16T00:50:59.741Z,8.75
2023-04-16T00:53:43.815Z,8.82
2023-04-16T00:56:20.878Z,8.86
2023-04-16T00:59:17.357Z,8.91
2023-04-16T01:01:46.667Z,8.97
2023-04-16T01:04:16.328Z,9.02
2023-04-16T01:06:45.062Z,9.06
2023-04-16T01:09:15.484Z,9.08
2023-04-16T01:11:44.192Z,9.10
2023-04-16T01:14:44.633Z,9.17
2023-04-16T01:17:15.944Z,9.19
2023-04-16T01:20:05.430Z,9.20
2023-04-16T01:22:54.996Z,9.21
2023-04-16T01:25:25.827Z,9.23
2023-04-16T01:28:08.845Z,9.24
2023-04-16T01:31:03.616Z,9.23
2023-04-16T01:33:56.298Z,9.19
2023-04-16T01:36:25.656Z,9.22
2023-04-16T01:39:08.094Z,9.24
2023-04-16T01:41:41.759Z,9.26
2023-04-16T01:44:13.983Z,9.26
2023-04-16T01:46:45.771Z,9.27
2023-04-16T01:50:35.788Z,9.29
2023-04-16T01:53:33.834Z,9.28
2023-04-16T01:57:02.533Z,9.31
2023-04-16T01:59:48.182Z,9.30
2023-04-16T02:02:30.790Z,9.34
2023-04-16T02:05:46.166Z,9.35
2023-04-16T02:09:30.728Z,9.39
2023-04-16T02:12:16.550Z,9.36
2023-04-16T02:15:06.009Z,9.36
2023-04-16T02:18:30.376Z,9.39
2023-04-16T02:21:34.094Z,9.41
2023-04-16T02:25:02.470Z,9.43
2023-04-16T02:28:35.536Z,9.47
2023-04-16T02:31:35.850Z,9.51
2023-04-16T02:35:17.698Z,9.56
2023-04-16T02:38:11.086Z,9.55
2023-04-16T02:41:56.140Z,9.55
2023-04-16T02:44:25.149Z,9.54
2023-04-16T02:48:20.272Z,9.56
2023-04-16T02:52:15.551Z,9.49
2023-04-16T02:54:45.464Z,9.46
2023-04-16T02:57:39.050Z,9.46
2023-04-16T03:00:24.738Z,9.42
2023-04-16T03:03:31.853Z,9.42
2023-04-16T03:06:55.226Z,9.38
2023-04-16T03:09:44.450Z,9.36
2023-04-16T03:12:57.774Z,9.33
2023-04-16T03:16:00.257Z,9.33
2023-04-16T03:18:44.299Z,9.27
2023-04-16T03:21:50.936Z,9.20
2023-04-16T03:24:34.684Z,9.16
2023-04-16T03:27:04.885Z,9.12
2023-04-16T03:29:34.034Z,9.11
2023-04-16T03:32:02.838Z,9.10
2023-04-16T03:34:33.256Z,9.03
2023-04-16T03:37:57.980Z,9.05
2023-04-16T03:40:33.494Z,9.03
2023-04-16T03:43:02.762Z,9.04
2023-04-16T03:45:49.318Z,9.03
2023-04-16T03:49:12.582Z,9.04
2023-04-16T03:51:50.155Z,9.06
2023-04-16T03:54:21.312Z,9.09
2023-04-16T03:56:54.496Z,9.14
2023-04-16T03:59:22.975Z,9.13
2023-04-16T04:01:52.458Z,9.12
2023-04-16T04:04:21.500Z,9.16
2023-04-16T04:06:50.271Z,9.20
2023-04-16T04:09:21.202Z,9.22
2023-04-16T04:11:52.359Z,9.21
2023-04-16T04:14:21.446Z,9.21
2023-04-16T04:16:50.234Z,9.22
2023-04-16T04:19:19.025Z,9.23
2023-04-16T04:21:47.801Z,9.20
2023-04-16T04:24:18.016Z,9.23
2023-04-16T04:26:47.219Z,9.25
2023-04-16T04:29:16.542Z,9.25
2023-04-16T04:31:45.905Z,9.33
2023-04-16T04:34:14.807Z,9.40
2023-04-16T04:36:43.609Z,9.48
2023-04-16T04:39:15.355Z,9.53
2023-04-16T04:41:44.780Z,9.59
2023-04-16T04:44:13.491Z,9.60
2023-04-16T04:46:43.161Z,9.66
2023-04-16T04:49:11.841Z,9.74
2023-04-16T04:51:40.946Z,9.82
2023-04-16T04:54:09.753Z,9.85
2023-04-16T04:56:46.413Z,9.94
2023-04-16T04:59:15.286Z,10.01
2023-04-16T05:01:43.866Z,10.11
2023-04-16T05:04:12.851Z,10.10
2023-04-16T05:06:41.749Z,10.18
2023-04-16T05:09:14.433Z,10.19
2023-04-16T05:11:43.231Z,10.28
2023-04-16T05:14:12.343Z,10.41
2023-04-16T05:16:41.223Z,10.47
2023-04-16T05:19:10.383Z,10.52
2023-04-16T05:21:39.205Z,10.52
2023-04-16T05:24:07.875Z,10.58
2023-04-16T05:26:36.494Z,10.66
2023-04-16T05:29:05.352Z,10.69
2023-04-16T05:31:33.940Z,10.75
2023-04-16T05:34:03.176Z,10.75
2023-04-16T05:36:31.819Z,10.80
2023-04-16T05:39:00.622Z,10.87
2023-04-16T05:41:29.651Z,10.94
2023-04-16T05:43:58.922Z,10.91
2023-04-16T05:46:27.729Z,10.96
2023-04-16T05:48:56.379Z,11.06
2023-04-16T05:51:26.587Z,11.16
2023-04-16T05:54:01.944Z,11.23
2023-04-16T05:56:38.564Z,11.34
2023-04-16T05:59:08.612Z,11.41
2023-04-16T06:01:37.423Z,11.37
2023-04-16T06:04:06.596Z,11.38
2023-04-16T06:07:20.258Z,11.55
2023-04-16T06:09:49.057Z,11.66
2023-04-16T06:12:49.979Z,11.80
2023-04-16T06:15:18.973Z,11.93
2023-04-16T06:17:47.734Z,12.03
2023-04-16T06:20:16.762Z,12.03
2023-04-16T06:22:45.356Z,12.07
2023-04-16T06:26:31.029Z,12.24
2023-04-16T06:29:50.909Z,12.11
2023-04-16T06:32:19.726Z,12.18
2023-04-16T06:34:55.413Z,12.31
2023-04-16T06:37:24.546Z,12.41
2023-04-16T06:40:16.107Z,12.49
2023-04-16T06:43:45.621Z,12.80
2023-04-16T06:46:17.165Z,12.68
2023-04-16T06:49:49.982Z,12.70
2023-04-16T06:52:48.504Z,12.66
2023-04-16T06:56:09.761Z,12.67
2023-04-16T06:58:39.289Z,12.73
2023-04-16T07:01:08.566Z,12.81
2023-04-16T07:04:20.089Z,12.86
2023-04-16T07:06:50.107Z,12.82
2023-04-16T07:09:18.517Z,12.90
2023-04-16T07:12:01.041Z,12.96
2023-04-16T07:14:40.151Z,13.02
2023-04-16T07:17:34.843Z,13.09
2023-04-16T07:20:11.560Z,13.20
2023-04-16T07:22:40.215Z,13.29
2023-04-16T07:25:09.830Z,13.38
2023-04-16T07:27:38.710Z,13.49
2023-04-16T07:30:16.414Z,13.64
2023-04-16T07:32:45.126Z,13.73
2023-04-16T07:35:14.187Z,13.58
2023-04-16T07:44:33.734Z,13.60
2023-04-16T07:55:43.622Z,14.00
2023-04-16T07:58:43.734Z,14.19
2023-04-16T08:01:14.040Z,14.23
2023-04-16T08:04:54.845Z,14.39
2023-04-16T08:07:29.782Z,14.57
2023-04-16T08:09:58.458Z,14.65
2023-04-16T08:12:29.163Z,14.55
2023-04-16T08:14:57.783Z,14.80
2023-04-16T08:17:26.501Z,15.05
2023-04-16T08:21:11.735Z,14.97
2023-04-16T08:23:42.549Z,14.75
2023-04-16T08:26:11.882Z,14.88
2023-04-16T10:18:31.274Z,15.31
2023-04-16T10:21:00.292Z,15.46
2023-04-16T10:24:02.528Z,15.56
2023-04-16T10:27:06.398Z,15.66
2023-04-16T10:30:01.098Z,15.71
2023-04-16T10:32:34.814Z,15.89
2023-04-16T10:35:05.641Z,15.89
2023-04-16T10:37:34.326Z,16.05
2023-04-16T10:40:23.768Z,16.26
2023-04-16T10:42:59.790Z,15.98
2023-04-16T10:45:48.869Z,16.03
2023-04-16T10:48:21.034Z,16.13
2023-04-16T10:50:59.034Z,16.08
2023-04-16T10:53:28.955Z,16.13
2023-04-16T10:56:28.252Z,16.16
2023-04-16T10:58:56.759Z,16.25
2023-04-16T11:01:45.107Z,16.18
2023-04-16T11:04:40.294Z,16.06
2023-04-16T11:07:20.882Z,15.99
2023-04-16T11:10:05.440Z,15.90
2023-04-16T11:12:39.240Z,15.89
2023-04-16T11:15:20.001Z,15.74
2023-04-16T11:17:54.612Z,15.74
2023-04-16T11:20:26.175Z,15.85
2023-04-16T11:22:57.159Z,15.73
2023-04-16T11:25:30.150Z,15.57
2023-04-16T11:29:14.049Z,15.46
2023-04-16T11:32:37.645Z,15.45
2023-04-16T11:36:04.444Z,15.39
2023-04-16T11:38:39.242Z,15.31
2023-04-16T11:41:08.083Z,15.27
2023-04-16T11:44:51.919Z,15.17
2023-04-16T11:47:21.657Z,14.99
2023-04-16T11:49:51.017Z,14.82
2023-04-16T11:52:46.055Z,14.67
2023-04-16T11:55:15.699Z,14.44
2023-04-16T11:57:44.446Z,14.42
2023-04-16T12:00:15.399Z,14.31
2023-04-16T12:02:52.045Z,14.07
2023-04-16T12:05:39.408Z,13.85
2023-04-16T12:08:10.280Z,13.61
2023-04-16T12:10:54.822Z,13.42
2023-04-16T12:13:26.861Z,13.24
2023-04-16T12:15:57.553Z,13.03
2023-04-16T12:18:29.363Z,12.86
2023-04-16T12:21:00.001Z,12.59
2023-04-16T12:23:33.760Z,12.48
2023-04-16T12:29:28.056Z,12.20
2023-04-16T12:34:53.780Z,12.08
2023-04-16T12:37:32.747Z,12.02
2023-04-16T12:40:03.253Z,12.00
2023-04-16T12:42:36.183Z,12.00
2023-04-16T12:45:06.433Z,11.99
2023-04-16T12:47:35.240Z,11.95
2023-04-16T12:50:04.861Z,11.95
2023-04-16T12:52:34.496Z,11.90
2023-04-16T12:55:03.668Z,11.89
2023-04-16T12:57:32.251Z,11.89
2023-04-16T13:00:02.375Z,11.87
2023-04-16T13:02:32.416Z,11.88
2023-04-16T13:05:01.902Z,11.83
2023-04-16T13:07:32.522Z,11.86
2023-04-16T13:10:02.065Z,11.85
2023-04-16T13:12:38.319Z,11.69
2023-04-16T13:15:31.513Z,11.67
2023-04-16T13:18:01.577Z,11.60
2023-04-16T13:20:33.449Z,11.55
2023-04-16T13:23:05.344Z,11.59
2023-04-16T13:25:35.830Z,11.58
2023-04-16T13:28:05.689Z,11.57
2023-04-16T13:30:36.369Z,11.62
2023-04-16T13:33:06.934Z,11.64
2023-04-16T13:35:36.123Z,11.63
2023-04-16T13:38:05.575Z,11.63
2023-04-16T13:40:34.335Z,11.66
2023-04-16T13:43:02.964Z,11.63
2023-04-16T13:45:32.468Z,11.67
2023-04-16T13:48:01.289Z,11.59
2023-04-16T13:54:09.294Z,11.58
2023-04-16T13:56:38.372Z,11.62
2023-04-16T13:59:18.150Z,11.62
2023-04-16T14:01:57.861Z,11.65
2023-04-16T14:04:50.611Z,11.71
2023-04-16T14:07:21.872Z,11.76
2023-04-16T14:10:16.044Z,11.80
2023-04-16T14:12:48.219Z,11.80
2023-04-16T14:15:17.510Z,11.84
2023-04-16T14:17:49.603Z,11.86
2023-04-16T14:20:18.268Z,11.89
2023-04-16T14:22:47.161Z,11.93
2023-04-16T14:25:16.452Z,11.93
2023-04-16T14:27:52.515Z,11.95
2023-04-16T14:30:46.698Z,11.92
2023-04-16T14:33:26.428Z,11.89
2023-04-16T14:36:03.196Z,11.87
2023-04-16T14:38:32.857Z,11.92
2023-04-16T14:41:01.925Z,11.95
2023-04-16T14:43:55.593Z,11.99
2023-04-16T14:46:25.467Z,12.02
2023-04-16T14:48:54.196Z,12.02
2023-04-16T14:51:22.875Z,12.01
2023-04-16T14:53:51.702Z,11.96
2023-04-16T14:56:20.460Z,11.89
2023-04-16T14:58:49.041Z,11.89
2023-04-16T15:01:43.545Z,11.86
2023-04-16T15:04:39.557Z,11.84
2023-04-16T15:07:08.601Z,11.85
2023-04-16T15:10:07.551Z,11.85
2023-04-16T15:12:36.027Z,11.88
2023-04-16T15:15:07.098Z,11.91
2023-04-16T15:17:36.221Z,11.91
2023-04-16T15:20:11.167Z,11.93
2023-04-16T15:22:40.618Z,11.98
2023-04-16T15:25:09.534Z,11.97
2023-04-16T15:27:39.475Z,11.99
2023-04-16T15:30:08.936Z,12.06
2023-04-16T15:32:37.430Z,12.09
2023-04-16T15:35:07.559Z,12.08
2023-04-16T15:37:37.731Z,12.09
2023-04-16T15:40:08.708Z,12.08
2023-04-16T15:42:37.570Z,12.08
2023-04-16T15:45:06.862Z,12.09
2023-04-16T15:47:37.545Z,12.10
2023-04-16T15:50:08.822Z,12.08
2023-04-16T15:52:39.955Z,12.07
2023-04-16T15:55:09.599Z,12.07
2023-04-16T15:57:38.388Z,12.08
2023-04-16T16:00:17.611Z,12.05
2023-04-16T16:02:47.682Z,12.00
2023-04-16T16:05:17.135Z,11.97
2023-04-16T16:07:45.702Z,11.96
2023-04-16T16:13:49.355Z,11.94
2023-04-16T16:16:18.281Z,11.91
2023-04-16T16:18:47.658Z,11.83
2023-04-16T16:21:16.531Z,11.78
2023-04-16T16:23:45.260Z,11.76
2023-04-16T16:26:14.014Z,11.71
2023-04-16T16:32:17.552Z,11.75
2023-04-16T16:34:46.119Z,11.70
2023-04-16T16:37:22.486Z,11.74
2023-04-16T16:39:52.640Z,11.75
2023-04-16T16:42:21.077Z,11.73
2023-04-16T16:44:49.964Z,11.66
2023-04-16T16:47:44.495Z,11.62
2023-04-16T16:50:13.144Z,11.54
2023-04-16T16:52:42.034Z,11.50
2023-04-16T16:55:11.362Z,11.47
2023-04-16T16:57:41.558Z,11.46
2023-04-16T17:00:15.433Z,11.46
2023-04-16T17:02:44.603Z,11.46
2023-04-16T17:05:13.787Z,11.43
2023-04-16T17:07:44.392Z,11.43
2023-04-16T17:10:20.327Z,11.41
2023-04-16T17:12:49.738Z,11.41
2023-04-16T17:15:21.130Z,11.40
2023-04-16T17:17:50.683Z,11.39
2023-04-16T17:20:20.234Z,11.39
2023-04-16T17:22:48.820Z,11.37
2023-04-16T17:25:17.381Z,11.35
2023-04-16T17:27:47.908Z,11.36
2023-04-16T17:30:17.429Z,11.37
2023-04-16T17:32:45.813Z,11.36
2023-04-16T17:35:14.983Z,11.36
2023-04-16T17:38:36.045Z,11.35
2023-04-16T17:41:05.812Z,11.33
2023-04-16T17:43:34.392Z,11.34
2023-04-16T17:46:28.191Z,11.32
2023-04-16T17:48:58.087Z,11.31
2023-04-16T17:51:27.687Z,11.28
2023-04-16T17:53:56.373Z,11.27
2023-04-16T17:56:25.157Z,11.26
2023-04-16T17:58:53.641Z,11.25
2023-04-16T18:01:22.506Z,11.27
2023-04-16T18:03:51.672Z,11.25
2023-04-16T18:06:20.415Z,11.24
2023-04-16T18:08:48.786Z,11.21
2023-04-16T18:11:23.318Z,11.18
2023-04-16T18:13:54.276Z,11.21
2023-04-16T18:16:23.114Z,11.21
2023-04-16T18:18:51.521Z,11.22
2023-04-16T18:21:20.008Z,11.24
2023-04-16T18:23:48.687Z,11.23
2023-04-16T18:26:20.450Z,11.26
2023-04-16T18:28:49.672Z,11.27
2023-04-16T18:31:21.199Z,11.30
2023-04-16T18:33:57.218Z,11.29
2023-04-16T18:36:27.598Z,11.29
2023-04-16T18:39:01.706Z,11.29
2023-04-16T18:41:31.599Z,11.31
2023-04-16T18:44:00.519Z,11.31
2023-04-16T18:46:57.448Z,11.28
2023-04-16T18:49:28.793Z,11.28
2023-04-16T18:51:57.714Z,11.27
2023-04-16T18:54:26.400Z,11.26
2023-04-16T18:57:04.068Z,11.27
2023-04-16T18:59:32.873Z,11.26
2023-04-16T19:02:01.771Z,11.26
2023-04-16T19:04:30.815Z,11.27
2023-04-16T19:07:00.237Z,11.28
2023-04-16T19:09:28.831Z,11.27
2023-04-16T19:11:59.168Z,11.23
2023-04-16T19:14:28.612Z,11.22
2023-04-16T19:16:58.802Z,11.23
2023-04-16T19:19:27.772Z,11.22
2023-04-16T19:21:56.591Z,11.22
2023-04-16T19:24:25.862Z,11.22
2023-04-16T19:26:54.341Z,11.23
2023-04-16T19:29:23.335Z,11.25
2023-04-16T19:31:52.238Z,11.25
2023-04-16T19:34:20.972Z,11.24
2023-04-16T19:36:49.726Z,11.21
2023-04-16T19:39:18.481Z,11.20
2023-04-16T19:41:47.082Z,11.13
2023-04-16T19:44:16.237Z,11.09
2023-04-16T19:46:44.844Z,11.08
2023-04-16T19:49:13.621Z,11.02
2023-04-16T19:51:42.453Z,10.96
2023-04-16T19:54:11.220Z,10.93
2023-04-16T19:56:39.690Z,10.87
2023-04-16T19:59:08.176Z,10.81
2023-04-16T20:01:37.427Z,10.77
2023-04-16T20:04:07.317Z,10.75
2023-04-16T20:06:36.181Z,10.71
2023-04-16T20:09:05.282Z,10.70
2023-04-16T20:11:59.145Z,10.70
2023-04-16T20:14:27.732Z,10.71
2023-04-16T20:16:56.241Z,10.71
2023-04-16T20:19:31.657Z,10.70
2023-04-16T20:22:00.743Z,10.71
2023-04-16T20:24:31.314Z,10.68
2023-04-16T20:27:00.056Z,10.70
2023-04-16T20:29:31.893Z,10.67
2023-04-16T20:32:06.054Z,10.65
2023-04-16T20:34:34.738Z,10.65
2023-04-16T20:37:03.304Z,10.65
2023-04-16T20:39:34.230Z,10.65
2023-04-16T20:42:04.508Z,10.65
2023-04-16T20:44:40.590Z,10.63
2023-04-16T20:47:11.138Z,10.63
2023-04-16T20:49:40.578Z,10.62
2023-04-16T20:52:09.077Z,10.62
2023-04-16T20:54:37.937Z,10.61
2023-04-16T20:57:06.717Z,10.61
2023-04-16T20:59:37.172Z,10.61
2023-04-16T21:02:07.044Z,10.61
2023-04-16T21:04:35.634Z,10.61
2023-04-16T21:07:04.516Z,10.60
2023-04-16T21:09:33.026Z,10.61
2023-04-16T21:12:04.538Z,10.60
2023-04-16T21:14:33.152Z,10.60
2023-04-16T21:17:01.882Z,10.60
2023-04-16T21:20:20.904Z,10.57
2023-04-16T21:22:57.106Z,10.58
2023-04-16T21:25:26.060Z,10.60
2023-04-16T21:28:35.095Z,10.61
2023-04-16T21:31:03.689Z,10.62
2023-04-16T21:36:49.326Z,10.61
2023-04-16T21:39:56.358Z,10.53
2023-04-16T21:42:42.981Z,10.51
2023-04-16T21:45:11.710Z,10.47
2023-04-16T21:47:40.793Z,10.46
2023-04-16T21:50:28.694Z,10.43
2023-04-16T21:53:23.885Z,10.43
2023-04-16T21:55:52.468Z,10.45
2023-04-16T21:58:36.120Z,10.47
2023-04-16T22:01:09.556Z,10.50
2023-04-16T22:04:26.625Z,10.49
2023-04-16T22:07:17.180Z,10.45
2023-04-16T22:10:04.478Z,10.43
2023-04-16T22:13:02.034Z,10.41
2023-04-16T22:15:56.277Z,10.41
2023-04-16T22:18:50.285Z,10.43
2023-04-16T22:21:18.966Z,10.46
2023-04-16T22:24:18.055Z,10.48
2023-04-16T22:26:58.213Z,10.47
2023-04-16T22:42:48.759Z,10.60
2023-04-16T22:45:34.909Z,10.54
2023-04-16T22:48:27.340Z,10.50
2023-04-16T22:50:56.432Z,10.45
2023-04-16T22:53:52.153Z,10.40
2023-04-16T22:57:45.536Z,10.35
2023-04-16T23:00:46.477Z,10.29
2023-04-16T23:04:07.532Z,10.28
2023-04-16T23:08:24.418Z,10.26
2023-04-16T23:12:03.128Z,10.28
2023-04-16T23:19:59.080Z,10.29
2023-04-16T23:23:20.600Z,10.29
2023-04-16T23:25:56.766Z,10.33
2023-04-16T23:28:30.575Z,10.32
2023-04-16T23:31:43.219Z,10.32
2023-04-16T23:34:43.161Z,10.33
2023-04-16T23:37:57.664Z,10.31
2023-04-16T23:41:27.242Z,10.34
2023-04-16T23:44:53.279Z,10.32
2023-04-16T23:48:14.696Z,10.32
2023-04-16T23:51:39.763Z,10.32
2023-04-16T23:55:12.878Z,10.30
2023-04-16T23:58:31.073Z,10.29
